createdAt,value
2022-12-24T00:01:09.142Z,99732.94
2022-12-24T00:03:38.220Z,99736.56
2022-12-24T00:06:07.248Z,99744.81
2022-12-24T00:08:35.641Z,99738.09
2022-12-24T00:11:03.715Z,99739.56
2022-12-24T00:13:32.870Z,99736.81
2022-12-24T00:16:00.755Z,99741.09
2022-12-24T00:18:28.783Z,99737.31
2022-12-24T00:20:56.604Z,99736.72
2022-12-24T00:23:24.482Z,99736.13
2022-12-24T00:25:52.325Z,99738.31
2022-12-24T00:28:21.101Z,99735.06
2022-12-24T00:30:50.337Z,99743.22
2022-12-24T00:33:24.153Z,99740.41
2022-12-24T00:35:53.679Z,99737.03
2022-12-24T00:38:21.643Z,99740.88
2022-12-24T00:40:49.481Z,99740.97
2022-12-24T00:43:17.288Z,99742.41
2022-12-24T00:45:45.240Z,99745.59
2022-12-24T00:48:14.446Z,99746.63
2022-12-24T00:50:42.370Z,99753.19
2022-12-24T00:53:10.217Z,99758.09
2022-12-24T00:55:38.275Z,99762.91
2022-12-24T00:58:06.071Z,99766.34
2022-12-24T01:00:33.985Z,99771.34
2022-12-24T01:03:01.924Z,99770.66
2022-12-24T01:05:30.565Z,99773.09
2022-12-24T01:07:58.390Z,99775.00
2022-12-24T01:10:26.338Z,99772.78
2022-12-24T01:12:54.145Z,99772.19
2022-12-24T01:15:22.048Z,99783.03
2022-12-24T01:17:49.916Z,99776.31
2022-12-24T01:20:19.090Z,99781.59
2022-12-24T01:22:48.876Z,99781.03
2022-12-24T01:25:16.793Z,99779.97
2022-12-24T01:27:44.702Z,99782.88
2022-12-24T01:30:15.140Z,99779.44
2022-12-24T01:32:43.115Z,99783.34
2022-12-24T01:35:12.463Z,99786.16
2022-12-24T01:37:40.735Z,99790.47
2022-12-24T01:40:33.489Z,99782.38
2022-12-24T01:43:33.807Z,99790.25
2022-12-24T01:46:03.180Z,99791.53
2022-12-24T01:48:36.338Z,99794.97
2022-12-24T01:51:08.851Z,99803.66
2022-12-24T01:53:38.721Z,99805.78
2022-12-24T01:56:08.869Z,99806.03
2022-12-24T01:58:37.413Z,99808.69
2022-12-24T02:01:08.173Z,99814.44
2022-12-24T02:03:36.392Z,99811.28
2022-12-24T02:06:04.859Z,99825.94
2022-12-24T02:08:40.823Z,99826.09
2022-12-24T02:11:15.420Z,99831.91
2022-12-24T02:13:45.771Z,99830.31
2022-12-24T02:16:21.888Z,99837.13
2022-12-24T02:18:57.393Z,99842.34
2022-12-24T02:21:56.363Z,99847.84
2022-12-24T02:24:39.532Z,99860.91
2022-12-24T02:27:20.748Z,99857.09
2022-12-24T02:30:15.491Z,99869.31
2022-12-24T02:33:06.041Z,99873.25
2022-12-24T02:35:39.461Z,99873.56
2022-12-24T02:38:15.331Z,99877.03
2022-12-24T02:40:48.417Z,99877.75
2022-12-24T02:43:18.584Z,99876.59
2022-12-24T02:45:56.885Z,99877.00
2022-12-24T02:48:27.671Z,99886.34
2022-12-24T02:50:57.078Z,99894.16
2022-12-24T02:53:24.913Z,99899.03
2022-12-24T02:56:15.143Z,99902.91
2022-12-24T02:58:49.397Z,99907.56
2022-12-24T03:01:27.243Z,99907.13
2022-12-24T03:04:02.646Z,99907.31
2022-12-24T03:06:35.877Z,99902.25
2022-12-24T03:09:08.147Z,99911.53
2022-12-24T03:11:37.913Z,99906.69
2022-12-24T03:14:05.782Z,99913.56
2022-12-24T03:16:35.098Z,99916.47
2022-12-24T03:19:03.031Z,99914.31
2022-12-24T03:21:34.680Z,99921.63
2022-12-24T03:24:02.525Z,99920.09
2022-12-24T03:26:32.175Z,99925.19
2022-12-24T03:29:00.564Z,99930.38
2022-12-24T03:31:30.571Z,99934.81
2022-12-24T03:33:59.842Z,99930.97
2022-12-24T03:36:30.667Z,99936.66
2022-12-24T03:38:58.535Z,99948.78
2022-12-24T03:41:26.325Z,99949.84
2022-12-24T03:43:54.127Z,99953.19
2022-12-24T03:46:24.597Z,99964.16
2022-12-24T03:48:52.577Z,99959.84
2022-12-24T03:51:23.197Z,99961.88
2022-12-24T03:53:51.085Z,99971.44
2022-12-24T03:56:18.950Z,99976.31
2022-12-24T03:58:47.054Z,99969.78
2022-12-24T04:01:15.019Z,99968.63
2022-12-24T04:03:42.966Z,99974.22
2022-12-24T04:06:12.352Z,99970.34
2022-12-24T04:08:42.169Z,99975.53
2022-12-24T04:11:11.409Z,99980.75
2022-12-24T04:13:39.263Z,99983.34
2022-12-24T04:16:09.034Z,99989.81
2022-12-24T04:18:37.950Z,99978.53
2022-12-24T04:21:06.595Z,99973.50
2022-12-24T04:23:35.868Z,99973.56
2022-12-24T04:26:07.051Z,99976.09
2022-12-24T04:28:35.395Z,99989.41
2022-12-24T04:31:05.157Z,99992.00
2022-12-24T04:33:33.544Z,100002.44
2022-12-24T04:36:03.330Z,100010.03
2022-12-24T04:38:31.773Z,100009.31
2022-12-24T04:41:00.641Z,100018.63
2022-12-24T04:43:30.245Z,100018.69
2022-12-24T04:45:58.346Z,100027.56
2022-12-24T04:48:26.205Z,100034.38
2022-12-24T04:50:54.019Z,100035.78
2022-12-24T04:53:21.861Z,100032.28
2022-12-24T04:55:49.716Z,100037.34
2022-12-24T04:58:17.824Z,100036.75
2022-12-24T05:00:47.075Z,100041.44
2022-12-24T05:03:15.067Z,100042.16
2022-12-24T05:05:42.947Z,100052.53
2022-12-24T05:08:10.805Z,100050.97
2022-12-24T05:10:38.903Z,100045.78
2022-12-24T05:13:06.930Z,100046.28
2022-12-24T05:15:34.891Z,100041.22
2022-12-24T05:18:04.146Z,100041.84
2022-12-24T05:20:31.983Z,100043.88
2022-12-24T05:23:17.090Z,100045.66
2022-12-24T05:26:02.694Z,100043.72
2022-12-24T05:28:30.531Z,100054.25
2022-12-24T05:30:58.573Z,100045.56
2022-12-24T05:33:27.827Z,100052.31
2022-12-24T05:35:55.654Z,100053.38
2022-12-24T05:38:23.442Z,100052.47
2022-12-24T05:40:51.533Z,100042.16
2022-12-24T05:43:19.335Z,100048.38
2022-12-24T05:45:47.439Z,100047.25
2022-12-24T05:48:15.253Z,100051.84
2022-12-24T05:50:44.432Z,100067.75
2022-12-24T05:53:12.471Z,100065.63
2022-12-24T05:55:40.271Z,100081.38
2022-12-24T05:58:08.127Z,100077.75
2022-12-24T06:00:36.283Z,100080.97
2022-12-24T06:03:04.255Z,100082.78
2022-12-24T06:05:32.424Z,100087.59
2022-12-24T06:08:01.643Z,100087.66
2022-12-24T06:10:29.484Z,100072.09
2022-12-24T06:12:57.256Z,100084.63
2022-12-24T06:15:25.209Z,100090.41
2022-12-24T06:17:53.025Z,100094.78
2022-12-24T06:20:20.890Z,100094.34
2022-12-24T06:22:48.881Z,100100.47
2022-12-24T06:25:19.412Z,100102.16
2022-12-24T06:27:47.717Z,100110.69
2022-12-24T06:30:18.361Z,100099.28
2022-12-24T06:32:46.481Z,100108.72
2022-12-24T06:35:14.278Z,100116.31
2022-12-24T06:37:42.203Z,100125.75
2022-12-24T06:40:11.095Z,100122.38
2022-12-24T06:42:40.579Z,100123.91
2022-12-24T06:45:09.546Z,100122.22
2022-12-24T06:47:37.365Z,100125.59
2022-12-24T06:50:05.980Z,100123.56
2022-12-24T06:52:33.828Z,100112.94
2022-12-24T06:55:03.625Z,100131.13
2022-12-24T06:57:32.272Z,100145.66
2022-12-24T07:00:01.516Z,100136.69
2022-12-24T07:02:29.438Z,100143.22
2022-12-24T07:04:57.647Z,100148.22
2022-12-24T07:07:25.488Z,100161.75
2022-12-24T07:09:53.409Z,100157.13
2022-12-24T07:12:21.213Z,100154.88
2022-12-24T07:14:49.095Z,100161.66
2022-12-24T07:17:18.563Z,100167.78
2022-12-24T07:19:46.543Z,100175.75
2022-12-24T07:22:15.946Z,100179.13
2022-12-24T07:24:44.135Z,100185.94
2022-12-24T07:27:11.913Z,100188.06
2022-12-24T07:29:40.506Z,100188.00
2022-12-24T07:32:08.745Z,100190.47
2022-12-24T07:34:39.761Z,100189.59
2022-12-24T07:37:08.089Z,100189.50
2022-12-24T07:39:35.908Z,100202.78
2022-12-24T07:42:05.593Z,100204.91
2022-12-24T07:44:33.346Z,100199.34
2022-12-24T07:47:01.480Z,100203.50
2022-12-24T07:49:29.427Z,100215.81
2022-12-24T07:51:58.798Z,100215.75
2022-12-24T07:54:26.613Z,100228.59
2022-12-24T07:56:54.776Z,100228.63
2022-12-24T07:59:22.807Z,100242.44
2022-12-24T08:01:50.716Z,100233.69
2022-12-24T08:04:18.765Z,100226.91
2022-12-24T08:06:46.584Z,100227.47
2022-12-24T08:09:15.953Z,100224.72
2022-12-24T08:11:51.321Z,100225.69
2022-12-24T08:14:20.328Z,100223.59
2022-12-24T08:16:48.307Z,100232.09
2022-12-24T08:19:17.748Z,100236.13
2022-12-24T08:21:45.564Z,100230.63
2022-12-24T08:24:15.202Z,100226.06
2022-12-24T08:26:43.189Z,100235.03
2022-12-24T08:29:11.816Z,100252.25
2022-12-24T08:31:39.882Z,100242.00
2022-12-24T08:34:09.012Z,100244.31
2022-12-24T08:36:36.871Z,100243.56
2022-12-24T08:39:04.833Z,100243.53
2022-12-24T08:41:34.254Z,100252.56
2022-12-24T08:44:02.097Z,100255.22
2022-12-24T08:46:29.991Z,100253.81
2022-12-24T08:48:58.009Z,100260.81
2022-12-24T08:51:26.035Z,100255.44
2022-12-24T08:53:53.940Z,100262.44
2022-12-24T08:56:21.811Z,100263.28
2022-12-24T08:58:50.975Z,100254.25
2022-12-24T09:01:20.409Z,100259.88
2022-12-24T09:03:48.965Z,100273.06
2022-12-24T09:06:17.051Z,100274.31
2022-12-24T09:08:45.105Z,100282.38
2022-12-24T09:11:15.019Z,100289.91
2022-12-24T09:13:44.543Z,100280.69
2022-12-24T09:16:14.383Z,100290.75
2022-12-24T09:18:42.518Z,100299.09
2022-12-24T09:21:14.299Z,100303.38
2022-12-24T09:23:43.269Z,100296.25
2022-12-24T09:26:14.002Z,100302.81
2022-12-24T09:28:42.035Z,100300.31
2022-12-24T09:31:13.481Z,100305.84
2022-12-24T09:33:43.360Z,100314.81
2022-12-24T09:36:11.613Z,100324.38
2022-12-24T09:38:40.134Z,100316.28
2022-12-24T09:41:13.900Z,100339.78
2022-12-24T09:43:46.998Z,100333.91
2022-12-24T09:46:21.611Z,100345.03
2022-12-24T09:48:51.615Z,100338.72
2022-12-24T09:51:25.353Z,100348.16
2022-12-24T09:53:55.074Z,100356.75
2022-12-24T09:56:25.836Z,100361.53
2022-12-24T09:58:57.307Z,100361.44
2022-12-24T10:01:26.765Z,100367.00
2022-12-24T10:03:54.763Z,100373.16
2022-12-24T10:06:29.081Z,100376.16
2022-12-24T10:09:04.448Z,100386.84
2022-12-24T10:11:40.137Z,100389.59
2022-12-24T10:14:18.549Z,100388.19
2022-12-24T10:16:55.190Z,100385.78
2022-12-24T10:19:38.044Z,100388.78
2022-12-24T10:22:12.429Z,100402.63
2022-12-24T10:24:50.513Z,100411.47
2022-12-24T10:27:20.519Z,100404.84
2022-12-24T10:29:51.036Z,100405.31
2022-12-24T10:32:23.255Z,100419.06
2022-12-24T10:34:55.572Z,100418.66
2022-12-24T10:37:25.286Z,100427.50
2022-12-24T10:39:53.613Z,100433.63
2022-12-24T10:42:23.469Z,100431.53
2022-12-24T10:44:54.608Z,100428.53
2022-12-24T10:47:24.822Z,100429.13
2022-12-24T10:49:57.459Z,100426.94
2022-12-24T10:52:28.489Z,100427.88
2022-12-24T10:55:23.494Z,100436.31
2022-12-24T10:58:01.057Z,100436.31
2022-12-24T11:00:35.511Z,100447.91
2022-12-24T11:03:22.743Z,100451.88
2022-12-24T11:06:05.814Z,100455.09
2022-12-24T11:08:35.003Z,100453.63
2022-12-24T11:11:04.456Z,100446.13
2022-12-24T11:13:39.111Z,100462.31
2022-12-24T11:16:09.905Z,100449.50
2022-12-24T11:18:50.847Z,100443.13
2022-12-24T11:21:24.799Z,100454.84
2022-12-24T11:23:59.555Z,100473.91
2022-12-24T11:26:30.572Z,100459.44
2022-12-24T11:29:07.674Z,100455.88
2022-12-24T11:31:37.523Z,100458.53
2022-12-24T11:34:23.283Z,100463.31
2022-12-24T11:36:51.774Z,100462.03
2022-12-24T11:39:21.151Z,100473.78
2022-12-24T11:41:50.928Z,100470.28
2022-12-24T11:44:25.737Z,100478.97
2022-12-24T11:46:56.856Z,100483.06
2022-12-24T11:49:28.313Z,100481.97
2022-12-24T11:52:15.141Z,100489.59
2022-12-24T11:54:51.505Z,100483.31
2022-12-24T11:57:21.038Z,100487.84
2022-12-24T11:59:49.871Z,100485.56
2022-12-24T12:02:21.787Z,100481.41
2022-12-24T12:04:54.672Z,100484.66
2022-12-24T12:07:26.306Z,100488.31
2022-12-24T12:09:58.745Z,100489.34
2022-12-24T12:12:29.175Z,100494.09
2022-12-24T12:15:01.215Z,100496.59
2022-12-24T12:17:33.282Z,100506.50
2022-12-24T12:20:07.163Z,100504.56
2022-12-24T12:22:40.994Z,100505.13
2022-12-24T12:25:20.190Z,100511.84
2022-12-24T12:27:51.346Z,100517.50
2022-12-24T12:30:22.494Z,100514.59
2022-12-24T12:32:53.614Z,100509.56
2022-12-24T12:35:26.280Z,100510.28
2022-12-24T12:37:58.321Z,100512.16
2022-12-24T12:40:37.047Z,100513.34
2022-12-24T12:43:14.425Z,100520.69
2022-12-24T12:45:47.687Z,100523.13
2022-12-24T12:48:33.148Z,100528.88
2022-12-24T12:51:08.051Z,100526.97
2022-12-24T12:53:48.442Z,100538.25
2022-12-24T12:56:24.936Z,100536.94
2022-12-24T12:58:54.744Z,100535.69
2022-12-24T13:01:32.450Z,100542.53
2022-12-24T13:04:30.549Z,100544.53
2022-12-24T13:07:37.946Z,100536.25
2022-12-24T13:10:41.205Z,100536.03
2022-12-24T13:13:41.633Z,100543.13
2022-12-24T13:16:42.030Z,100542.19
2022-12-24T13:19:18.028Z,100537.97
2022-12-24T13:21:48.861Z,100539.50
2022-12-24T13:24:19.494Z,100544.41
2022-12-24T13:27:01.795Z,100548.31
2022-12-24T13:29:44.700Z,100551.19
2022-12-24T13:32:41.449Z,100554.31
2022-12-24T13:35:37.211Z,100557.09
2022-12-24T13:38:42.276Z,100565.50
2022-12-24T13:41:41.850Z,100576.44
2022-12-24T13:44:18.551Z,100578.44
2022-12-24T13:47:25.310Z,100589.34
2022-12-24T13:49:59.971Z,100577.03
2022-12-24T13:52:30.438Z,100578.59
2022-12-24T13:55:17.591Z,100594.34
2022-12-24T13:57:54.013Z,100597.47
2022-12-24T14:00:39.146Z,100599.25
2022-12-24T14:03:17.834Z,100596.38
2022-12-24T14:05:48.637Z,100611.66
2022-12-24T14:08:26.697Z,100612.59
2022-12-24T14:11:01.327Z,100610.72
2022-12-24T14:13:56.246Z,100610.66
2022-12-24T14:16:25.202Z,100616.66
2022-12-24T14:19:00.620Z,100631.66
2022-12-24T14:21:32.210Z,100626.94
2022-12-24T14:24:02.981Z,100620.50
2022-12-24T14:26:33.426Z,100629.66
2022-12-24T14:29:05.664Z,100626.00
2022-12-24T14:31:33.776Z,100627.81
2022-12-24T14:34:08.788Z,100629.03
2022-12-24T14:36:37.286Z,100629.84
2022-12-24T14:39:06.954Z,100637.78
2022-12-24T14:41:42.876Z,100651.84
2022-12-24T14:44:19.621Z,100652.81
2022-12-24T14:46:50.144Z,100650.06
2022-12-24T14:49:26.043Z,100653.47
2022-12-24T14:52:01.689Z,100654.81
2022-12-24T14:54:34.969Z,100653.03
2022-12-24T14:57:23.537Z,100654.34
2022-12-24T14:59:54.473Z,100670.56
2022-12-24T15:02:33.404Z,100678.38
2022-12-24T15:05:07.162Z,100670.25
2022-12-24T15:07:39.487Z,100677.19
2022-12-24T15:10:25.673Z,100687.81
2022-12-24T15:12:54.587Z,100694.50
2022-12-24T15:15:24.313Z,100702.13
2022-12-24T15:17:52.370Z,100703.34
2022-12-24T15:20:22.951Z,100704.03
2022-12-24T15:22:53.092Z,100707.94
2022-12-24T15:25:23.960Z,100716.88
2022-12-24T15:27:52.340Z,100708.22
2022-12-24T15:30:23.722Z,100718.28
2022-12-24T15:32:51.892Z,100720.13
2022-12-24T15:35:34.331Z,100728.72
2022-12-24T15:38:03.527Z,100731.97
2022-12-24T15:40:33.189Z,100726.03
2022-12-24T15:43:01.391Z,100723.00
2022-12-24T15:45:31.609Z,100732.06
2022-12-24T15:48:01.696Z,100724.78
2022-12-24T15:50:31.565Z,100732.31
2022-12-24T15:53:20.077Z,100738.09
2022-12-24T15:56:03.648Z,100747.03
2022-12-24T15:58:33.393Z,100746.47
2022-12-24T16:01:04.774Z,100747.78
2022-12-24T16:03:33.232Z,100750.25
2022-12-24T16:06:02.180Z,100756.03
2022-12-24T16:08:31.869Z,100750.69
2022-12-24T16:11:12.942Z,100755.66
2022-12-24T16:13:42.930Z,100762.69
2022-12-24T16:16:14.178Z,100763.88
2022-12-24T16:18:49.745Z,100770.63
2022-12-24T16:21:21.546Z,100782.50
2022-12-24T16:23:52.388Z,100770.72
2022-12-24T16:26:21.274Z,100777.84
2022-12-24T16:28:49.142Z,100774.38
2022-12-24T16:31:20.684Z,100762.66
2022-12-24T16:33:48.644Z,100775.84
2022-12-24T16:36:16.462Z,100778.72
2022-12-24T16:39:01.752Z,100773.56
2022-12-24T16:41:29.619Z,100775.53
2022-12-24T16:43:56.490Z,100776.19
2022-12-24T16:46:25.742Z,100769.59
2022-12-24T16:48:53.642Z,100778.31
2022-12-24T16:51:21.449Z,100788.50
2022-12-24T16:53:49.393Z,100798.44
2022-12-24T16:56:18.126Z,100802.97
2022-12-24T16:58:46.006Z,100807.16
2022-12-24T17:01:14.069Z,100798.44
2022-12-24T17:03:43.357Z,100808.50
2022-12-24T17:06:11.196Z,100800.22
2022-12-24T17:08:39.071Z,100817.28
2022-12-24T17:11:07.039Z,100811.97
2022-12-24T17:13:35.092Z,100810.13
2022-12-24T17:16:03.625Z,100809.00
2022-12-24T17:18:31.599Z,100820.69
2022-12-24T17:21:03.593Z,100824.22
2022-12-24T17:23:31.449Z,100825.28
2022-12-24T17:25:59.507Z,100833.56
2022-12-24T17:28:27.484Z,100834.84
2022-12-24T17:30:55.292Z,100834.25
2022-12-24T17:33:23.145Z,100840.97
2022-12-24T17:35:52.143Z,100853.09
2022-12-24T17:38:21.380Z,100840.34
2022-12-24T17:40:49.134Z,100842.94
2022-12-24T17:43:17.890Z,100843.16
2022-12-24T17:45:45.745Z,100834.63
2022-12-24T17:48:13.934Z,100848.53
2022-12-24T17:50:41.794Z,100848.47
2022-12-24T17:53:09.959Z,100858.47
2022-12-24T17:55:42.212Z,100851.50
2022-12-24T17:58:10.246Z,100856.72
2022-12-24T18:00:38.621Z,100859.63
2022-12-24T18:03:06.688Z,100859.72
2022-12-24T18:05:36.148Z,100872.09
2022-12-24T18:08:04.473Z,100867.28
2022-12-24T18:10:32.320Z,100875.03
2022-12-24T18:13:01.760Z,100879.50
2022-12-24T18:15:29.681Z,100877.50
2022-12-24T18:17:59.121Z,100886.41
2022-12-24T18:20:27.029Z,100886.75
2022-12-24T18:22:54.905Z,100885.97
2022-12-24T18:25:22.950Z,100889.63
2022-12-24T18:27:50.826Z,100892.78
2022-12-24T18:30:24.346Z,100895.78
2022-12-24T18:32:55.543Z,100898.47
2022-12-24T18:35:24.791Z,100885.38
2022-12-24T18:37:52.670Z,100899.31
2022-12-24T18:40:20.548Z,100901.38
2022-12-24T18:42:48.511Z,100892.59
2022-12-24T18:45:16.488Z,100907.31
2022-12-24T18:47:45.713Z,100904.38
2022-12-24T18:50:13.627Z,100909.03
2022-12-24T18:52:41.483Z,100921.47
2022-12-24T18:55:10.406Z,100915.59
2022-12-24T18:57:38.508Z,100918.28
2022-12-24T19:00:07.969Z,100925.63
2022-12-24T19:02:35.980Z,100919.75
2022-12-24T19:05:05.979Z,100925.25
2022-12-24T19:07:33.792Z,100928.44
2022-12-24T19:10:01.713Z,100926.59
2022-12-24T19:12:29.619Z,100926.25
2022-12-24T19:14:57.664Z,100926.72
2022-12-24T19:17:25.497Z,100931.25
2022-12-24T19:19:53.264Z,100931.66
2022-12-24T19:22:22.495Z,100939.06
2022-12-24T19:24:51.036Z,100935.09
2022-12-24T19:27:18.901Z,100939.69
2022-12-24T19:29:46.745Z,100937.53
2022-12-24T19:32:14.622Z,100940.97
2022-12-24T19:34:42.663Z,100937.50
2022-12-24T19:37:11.362Z,100929.97
2022-12-24T19:39:40.562Z,100931.59
2022-12-24T19:42:08.446Z,100941.91
2022-12-24T19:44:36.264Z,100945.41
2022-12-24T19:47:04.095Z,100952.94
2022-12-24T19:49:31.931Z,100960.31
2022-12-24T19:51:59.775Z,100960.78
2022-12-24T19:54:27.585Z,100966.53
2022-12-24T19:56:57.104Z,100962.44
2022-12-24T19:59:24.879Z,100970.22
2022-12-24T20:01:54.647Z,100967.06
2022-12-24T20:04:22.673Z,100964.41
2022-12-24T20:06:54.701Z,100965.03
2022-12-24T20:09:26.006Z,100953.75
2022-12-24T20:11:53.823Z,100961.38
2022-12-24T20:14:23.274Z,100963.91
2022-12-24T20:16:52.048Z,100967.34
2022-12-24T20:19:19.991Z,100965.88
2022-12-24T20:21:47.915Z,100971.63
2022-12-24T20:24:15.989Z,100965.88
2022-12-24T20:26:43.920Z,100968.88
2022-12-24T20:29:13.088Z,100976.09
2022-12-24T20:31:42.648Z,100971.63
2022-12-24T20:34:11.613Z,100975.47
2022-12-24T20:36:39.520Z,100976.31
2022-12-24T20:39:08.100Z,100973.00
2022-12-24T20:41:37.236Z,100974.53
2022-12-24T20:44:05.485Z,100972.28
2022-12-24T20:46:33.536Z,100981.41
2022-12-24T20:49:02.896Z,100986.75
2022-12-24T20:51:30.812Z,100992.59
2022-12-24T20:54:00.891Z,100993.72
2022-12-24T20:56:29.202Z,100999.19
2022-12-24T20:58:58.288Z,100993.41
2022-12-24T21:01:28.399Z,100995.16
2022-12-24T21:03:57.805Z,101002.97
2022-12-24T21:06:27.056Z,100996.84
2022-12-24T21:08:55.492Z,100997.69
2022-12-24T21:11:41.208Z,101011.94
2022-12-24T21:14:09.684Z,101003.66
2022-12-24T21:16:39.079Z,101004.66
2022-12-24T21:19:09.053Z,101008.78
2022-12-24T21:21:38.669Z,101006.88
2022-12-24T21:24:07.164Z,101017.25
2022-12-24T21:26:35.766Z,101020.22
2022-12-24T21:29:04.471Z,101022.84
2022-12-24T21:31:32.841Z,101022.63
2022-12-24T21:34:00.832Z,101026.19
2022-12-24T21:36:28.809Z,101016.03
2022-12-24T21:38:57.991Z,101022.06
2022-12-24T21:41:25.939Z,101034.63
2022-12-24T21:43:54.507Z,101027.38
2022-12-24T21:46:25.049Z,101034.69
2022-12-24T21:49:11.250Z,101043.66
2022-12-24T21:51:39.659Z,101040.88
2022-12-24T21:54:24.097Z,101048.78
2022-12-24T21:57:10.061Z,101047.34
2022-12-24T21:59:38.015Z,101047.13
2022-12-24T22:02:06.145Z,101065.31
2022-12-24T22:04:34.724Z,101069.84
2022-12-24T22:07:20.140Z,101074.59
2022-12-24T22:10:06.667Z,101074.09
2022-12-24T22:12:35.008Z,101071.69
2022-12-24T22:15:02.941Z,101077.34
2022-12-24T22:17:30.868Z,101074.13
2022-12-24T22:19:58.707Z,101073.63
2022-12-24T22:22:26.616Z,101075.34
2022-12-24T22:24:55.772Z,101081.41
2022-12-24T22:27:23.946Z,101082.47
2022-12-24T22:29:51.897Z,101084.94
2022-12-24T22:32:20.105Z,101084.16
2022-12-24T22:34:49.391Z,101085.75
2022-12-24T22:37:17.611Z,101088.97
2022-12-24T22:39:45.423Z,101090.28
2022-12-24T22:42:14.659Z,101101.84
2022-12-24T22:44:42.477Z,101095.69
2022-12-24T22:47:10.325Z,101103.53
2022-12-24T22:49:38.148Z,101102.44
2022-12-24T22:52:06.111Z,101105.38
2022-12-24T22:54:34.009Z,101106.91
2022-12-24T22:57:01.902Z,101112.53
2022-12-24T22:59:31.149Z,101119.69
2022-12-24T23:01:59.181Z,101124.09
2022-12-24T23:04:27.290Z,101124.72
2022-12-24T23:06:55.299Z,101130.50
2022-12-24T23:09:23.231Z,101131.00
2022-12-24T23:11:51.276Z,101128.50
2022-12-24T23:14:39.016Z,101129.28
2022-12-24T23:17:09.537Z,101132.13
2022-12-24T23:19:37.976Z,101131.28
2022-12-24T23:22:07.531Z,101134.56
2022-12-24T23:24:37.848Z,101125.22
2022-12-24T23:27:06.228Z,101127.53
2022-12-24T23:29:34.528Z,101130.94
2022-12-24T23:32:02.565Z,101130.72
2022-12-24T23:34:31.817Z,101131.75
2022-12-24T23:37:00.008Z,101139.00
2022-12-24T23:39:27.957Z,101138.41
2022-12-24T23:41:55.843Z,101138.66
2022-12-24T23:44:30.114Z,101132.25
2022-12-24T23:47:00.170Z,101136.13
2022-12-24T23:49:28.266Z,101130.41
2022-12-24T23:51:57.628Z,101128.03
2022-12-24T23:54:25.427Z,101115.19
2022-12-24T23:56:53.283Z,101129.84
2022-12-24T23:59:21.118Z,101128.97
